sensor_id;sensor_type;location;lat;lon;timestamp;P1;durP1;ratioP1;P2;durP2;ratioP2
40793;SDS011;26502;51.886;15.604;2023-03-22T00:00:27;52.80;;;36.10;;
40793;SDS011;26502;51.886;15.604;2023-03-22T00:05:56;50.90;;;37.40;;
40793;SDS011;26502;51.886;15.604;2023-03-22T00:11:03;56.70;;;37.20;;
40793;SDS011;26502;51.886;15.604;2023-03-22T00:16:11;51.30;;;36.60;;
40793;SDS011;26502;51.886;15.604;2023-03-22T00:21:18;50.50;;;36.10;;
40793;SDS011;26502;51.886;15.604;2023-03-22T00:26:24;50.10;;;37.20;;
40793;SDS011;26502;51.886;15.604;2023-03-22T00:31:30;51.90;;;37.40;;
40793;SDS011;26502;51.886;15.604;2023-03-22T00:36:36;50.80;;;35.90;;
40793;SDS011;26502;51.886;15.604;2023-03-22T00:41:42;51.30;;;36.20;;
40793;SDS011;26502;51.886;15.604;2023-03-22T00:46:48;54.00;;;37.80;;
40793;SDS011;26502;51.886;15.604;2023-03-22T00:51:54;60.60;;;41.80;;
40793;SDS011;26502;51.886;15.604;2023-03-22T00:57:00;51.40;;;38.50;;
40793;SDS011;26502;51.886;15.604;2023-03-22T01:02:06;52.00;;;37.40;;
40793;SDS011;26502;51.886;15.604;2023-03-22T01:07:16;55.60;;;40.50;;
40793;SDS011;26502;51.886;15.604;2023-03-22T01:12:24;52.20;;;39.40;;
40793;SDS011;26502;51.886;15.604;2023-03-22T01:17:30;49.20;;;37.30;;
40793;SDS011;26502;51.886;15.604;2023-03-22T01:22:36;49.60;;;37.30;;
40793;SDS011;26502;51.886;15.604;2023-03-22T01:27:43;52.40;;;39.10;;
40793;SDS011;26502;51.886;15.604;2023-03-22T01:32:49;53.30;;;38.30;;
40793;SDS011;26502;51.886;15.604;2023-03-22T01:37:55;58.00;;;40.60;;
40793;SDS011;26502;51.886;15.604;2023-03-22T01:43:01;52.20;;;38.50;;
40793;SDS011;26502;51.886;15.604;2023-03-22T01:48:13;54.50;;;39.60;;
40793;SDS011;26502;51.886;15.604;2023-03-22T01:53:22;51.20;;;39.40;;
40793;SDS011;26502;51.886;15.604;2023-03-22T01:58:31;56.10;;;39.30;;
40793;SDS011;26502;51.886;15.604;2023-03-22T02:03:42;53.80;;;39.30;;
40793;SDS011;26502;51.886;15.604;2023-03-22T02:08:51;57.20;;;38.90;;
40793;SDS011;26502;51.886;15.604;2023-03-22T02:20:09;55.70;;;38.70;;
40793;SDS011;26502;51.886;15.604;2023-03-22T02:26:01;50.90;;;38.80;;
40793;SDS011;26502;51.886;15.604;2023-03-22T02:31:29;54.20;;;38.50;;
40793;SDS011;26502;51.886;15.604;2023-03-22T02:37:09;54.00;;;39.10;;
40793;SDS011;26502;51.886;15.604;2023-03-22T02:42:38;54.40;;;38.90;;
40793;SDS011;26502;51.886;15.604;2023-03-22T02:47:53;54.70;;;38.80;;
40793;SDS011;26502;51.886;15.604;2023-03-22T02:53:06;57.30;;;39.50;;
40793;SDS011;26502;51.886;15.604;2023-03-22T02:58:20;57.40;;;40.30;;
40793;SDS011;26502;51.886;15.604;2023-03-22T03:03:28;55.40;;;40.60;;
40793;SDS011;26502;51.886;15.604;2023-03-22T03:08:39;58.10;;;41.70;;
40793;SDS011;26502;51.886;15.604;2023-03-22T03:18:55;49.60;;;37.10;;
40793;SDS011;26502;51.886;15.604;2023-03-22T03:24:13;46.90;;;34.20;;
40793;SDS011;26502;51.886;15.604;2023-03-22T03:29:27;43.20;;;31.20;;
40793;SDS011;26502;51.886;15.604;2023-03-22T03:34:42;39.60;;;28.90;;
40793;SDS011;26502;51.886;15.604;2023-03-22T03:39:54;43.60;;;33.30;;
40793;SDS011;26502;51.886;15.604;2023-03-22T03:45:07;41.20;;;30.40;;
40793;SDS011;26502;51.886;15.604;2023-03-22T03:50:14;44.00;;;30.40;;
40793;SDS011;26502;51.886;15.604;2023-03-22T03:55:21;35.50;;;27.20;;
40793;SDS011;26502;51.886;15.604;2023-03-22T04:00:29;35.40;;;27.20;;
40793;SDS011;26502;51.886;15.604;2023-03-22T04:05:54;31.60;;;24.90;;
40793;SDS011;26502;51.886;15.604;2023-03-22T04:11:02;35.00;;;26.90;;
40793;SDS011;26502;51.886;15.604;2023-03-22T04:16:10;39.50;;;30.20;;
40793;SDS011;26502;51.886;15.604;2023-03-22T04:21:18;37.90;;;29.00;;
40793;SDS011;26502;51.886;15.604;2023-03-22T04:26:34;42.40;;;30.40;;
40793;SDS011;26502;51.886;15.604;2023-03-22T04:31:50;39.10;;;29.30;;
40793;SDS011;26502;51.886;15.604;2023-03-22T04:37:03;45.60;;;30.50;;
40793;SDS011;26502;51.886;15.604;2023-03-22T04:42:13;56.60;;;36.20;;
40793;SDS011;26502;51.886;15.604;2023-03-22T04:47:20;56.50;;;37.40;;
40793;SDS011;26502;51.886;15.604;2023-03-22T04:52:26;53.20;;;36.50;;
40793;SDS011;26502;51.886;15.604;2023-03-22T04:57:34;53.00;;;36.10;;
40793;SDS011;26502;51.886;15.604;2023-03-22T05:02:41;48.90;;;33.70;;
40793;SDS011;26502;51.886;15.604;2023-03-22T05:07:54;53.00;;;37.10;;
40793;SDS011;26502;51.886;15.604;2023-03-22T05:13:01;48.80;;;33.30;;
40793;SDS011;26502;51.886;15.604;2023-03-22T05:18:09;48.30;;;33.60;;
40793;SDS011;26502;51.886;15.604;2023-03-22T05:23:16;51.70;;;32.80;;
40793;SDS011;26502;51.886;15.604;2023-03-22T05:28:26;50.00;;;33.00;;
40793;SDS011;26502;51.886;15.604;2023-03-22T05:33:57;52.10;;;33.80;;
40793;SDS011;26502;51.886;15.604;2023-03-22T05:39:07;40.10;;;29.10;;
40793;SDS011;26502;51.886;15.604;2023-03-22T05:44:14;38.50;;;27.30;;
40793;SDS011;26502;51.886;15.604;2023-03-22T05:49:34;51.20;;;29.10;;
40793;SDS011;26502;51.886;15.604;2023-03-22T05:54:41;46.50;;;25.50;;
40793;SDS011;26502;51.886;15.604;2023-03-22T05:59:47;25.10;;;17.40;;
40793;SDS011;26502;51.886;15.604;2023-03-22T06:05:00;23.40;;;14.70;;
40793;SDS011;26502;51.886;15.604;2023-03-22T06:10:09;20.40;;;14.40;;
40793;SDS011;26502;51.886;15.604;2023-03-22T06:15:18;26.90;;;16.00;;
40793;SDS011;26502;51.886;15.604;2023-03-22T06:20:45;26.30;;;15.90;;
40793;SDS011;26502;51.886;15.604;2023-03-22T06:25:54;21.60;;;15.10;;
40793;SDS011;26502;51.886;15.604;2023-03-22T06:31:05;24.60;;;17.10;;
40793;SDS011;26502;51.886;15.604;2023-03-22T06:36:22;25.10;;;17.50;;
40793;SDS011;26502;51.886;15.604;2023-03-22T06:41:39;25.30;;;15.80;;
40793;SDS011;26502;51.886;15.604;2023-03-22T06:46:45;15.60;;;12.10;;
40793;SDS011;26502;51.886;15.604;2023-03-22T06:52:12;20.00;;;14.40;;
40793;SDS011;26502;51.886;15.604;2023-03-22T06:57:19;19.70;;;14.00;;
40793;SDS011;26502;51.886;15.604;2023-03-22T07:02:26;38.20;;;17.50;;
40793;SDS011;26502;51.886;15.604;2023-03-22T07:07:55;31.90;;;17.90;;
40793;SDS011;26502;51.886;15.604;2023-03-22T07:13:03;25.60;;;14.90;;
40793;SDS011;26502;51.886;15.604;2023-03-22T07:18:10;19.70;;;13.80;;
40793;SDS011;26502;51.886;15.604;2023-03-22T07:23:16;16.40;;;13.30;;
40793;SDS011;26502;51.886;15.604;2023-03-22T07:28:26;22.10;;;13.80;;
40793;SDS011;26502;51.886;15.604;2023-03-22T07:33:33;15.30;;;10.50;;
40793;SDS011;26502;51.886;15.604;2023-03-22T07:38:39;17.60;;;11.10;;
40793;SDS011;26502;51.886;15.604;2023-03-22T07:43:50;13.40;;;10.30;;
40793;SDS011;26502;51.886;15.604;2023-03-22T07:48:58;13.80;;;9.70;;
40793;SDS011;26502;51.886;15.604;2023-03-22T07:54:30;15.70;;;10.50;;
40793;SDS011;26502;51.886;15.604;2023-03-22T07:59:36;12.20;;;9.10;;
40793;SDS011;26502;51.886;15.604;2023-03-22T08:04:43;12.30;;;8.40;;
40793;SDS011;26502;51.886;15.604;2023-03-22T08:10:01;12.50;;;8.60;;
40793;SDS011;26502;51.886;15.604;2023-03-22T08:15:11;10.80;;;8.30;;
40793;SDS011;26502;51.886;15.604;2023-03-22T08:20:18;11.80;;;8.40;;
40793;SDS011;26502;51.886;15.604;2023-03-22T08:25:28;9.90;;;6.90;;
40793;SDS011;26502;51.886;15.604;2023-03-22T08:30:42;11.00;;;7.90;;
40793;SDS011;26502;51.886;15.604;2023-03-22T08:35:50;10.20;;;7.60;;
40793;SDS011;26502;51.886;15.604;2023-03-22T08:40:56;10.90;;;7.60;;
40793;SDS011;26502;51.886;15.604;2023-03-22T08:46:03;9.90;;;7.20;;
40793;SDS011;26502;51.886;15.604;2023-03-22T08:51:10;9.10;;;7.20;;
40793;SDS011;26502;51.886;15.604;2023-03-22T08:56:26;8.90;;;6.60;;
40793;SDS011;26502;51.886;15.604;2023-03-22T09:01:47;8.00;;;6.40;;
40793;SDS011;26502;51.886;15.604;2023-03-22T09:06:53;9.00;;;6.20;;
40793;SDS011;26502;51.886;15.604;2023-03-22T09:12:00;10.90;;;6.80;;
40793;SDS011;26502;51.886;15.604;2023-03-22T09:17:07;8.80;;;6.40;;
40793;SDS011;26502;51.886;15.604;2023-03-22T09:22:14;8.40;;;5.70;;
40793;SDS011;26502;51.886;15.604;2023-03-22T09:27:24;9.10;;;6.50;;
40793;SDS011;26502;51.886;15.604;2023-03-22T09:32:30;9.90;;;6.50;;
40793;SDS011;26502;51.886;15.604;2023-03-22T09:37:37;5.10;;;4.10;;
40793;SDS011;26502;51.886;15.604;2023-03-22T09:42:44;8.20;;;5.00;;
40793;SDS011;26502;51.886;15.604;2023-03-22T09:47:53;8.40;;;5.30;;
40793;SDS011;26502;51.886;15.604;2023-03-22T09:53:02;8.00;;;5.00;;
40793;SDS011;26502;51.886;15.604;2023-03-22T09:58:15;4.60;;;3.60;;
40793;SDS011;26502;51.886;15.604;2023-03-22T10:03:31;8.70;;;4.10;;
40793;SDS011;26502;51.886;15.604;2023-03-22T10:09:00;7.50;;;4.20;;
40793;SDS011;26502;51.886;15.604;2023-03-22T10:14:19;6.30;;;4.80;;
40793;SDS011;26502;51.886;15.604;2023-03-22T10:19:33;5.90;;;4.10;;
40793;SDS011;26502;51.886;15.604;2023-03-22T10:24:47;5.20;;;3.40;;
40793;SDS011;26502;51.886;15.604;2023-03-22T10:29:58;5.60;;;4.00;;
40793;SDS011;26502;51.886;15.604;2023-03-22T10:35:07;5.20;;;3.30;;
40793;SDS011;26502;51.886;15.604;2023-03-22T10:40:19;3.60;;;3.10;;
40793;SDS011;26502;51.886;15.604;2023-03-22T10:45:28;4.20;;;3.00;;
40793;SDS011;26502;51.886;15.604;2023-03-22T10:50:38;4.50;;;3.70;;
40793;SDS011;26502;51.886;15.604;2023-03-22T10:55:47;6.00;;;4.20;;
40793;SDS011;26502;51.886;15.604;2023-03-22T11:00:55;7.70;;;5.10;;
40793;SDS011;26502;51.886;15.604;2023-03-22T11:06:06;5.60;;;3.90;;
40793;SDS011;26502;51.886;15.604;2023-03-22T11:11:20;4.90;;;3.50;;
40793;SDS011;26502;51.886;15.604;2023-03-22T11:16:29;6.50;;;3.80;;
40793;SDS011;26502;51.886;15.604;2023-03-22T11:21:43;6.10;;;3.20;;
40793;SDS011;26502;51.886;15.604;2023-03-22T11:27:02;5.40;;;3.40;;
40793;SDS011;26502;51.886;15.604;2023-03-22T11:32:19;5.50;;;3.30;;
40793;SDS011;26502;51.886;15.604;2023-03-22T11:37:29;4.30;;;2.90;;
40793;SDS011;26502;51.886;15.604;2023-03-22T11:42:36;7.20;;;2.90;;
40793;SDS011;26502;51.886;15.604;2023-03-22T11:47:42;6.50;;;4.00;;
40793;SDS011;26502;51.886;15.604;2023-03-22T11:52:48;3.90;;;2.70;;
40793;SDS011;26502;51.886;15.604;2023-03-22T11:57:57;3.90;;;2.20;;
40793;SDS011;26502;51.886;15.604;2023-03-22T12:03:06;3.50;;;2.10;;
40793;SDS011;26502;51.886;15.604;2023-03-22T12:08:20;1.90;;;1.60;;
40793;SDS011;26502;51.886;15.604;2023-03-22T12:13:34;5.90;;;2.90;;
40793;SDS011;26502;51.886;15.604;2023-03-22T12:18:49;2.80;;;1.60;;
40793;SDS011;26502;51.886;15.604;2023-03-22T12:24:03;4.20;;;1.40;;
40793;SDS011;26502;51.886;15.604;2023-03-22T12:29:21;1.20;;;0.90;;
40793;SDS011;26502;51.886;15.604;2023-03-22T12:34:35;2.70;;;1.30;;
40793;SDS011;26502;51.886;15.604;2023-03-22T12:39:47;1.70;;;1.00;;
40793;SDS011;26502;51.886;15.604;2023-03-22T12:44:57;4.40;;;1.20;;
40793;SDS011;26502;51.886;15.604;2023-03-22T12:50:10;1.30;;;1.20;;
40793;SDS011;26502;51.886;15.604;2023-03-22T12:55:21;1.60;;;0.90;;
40793;SDS011;26502;51.886;15.604;2023-03-22T13:00:33;2.80;;;1.30;;
40793;SDS011;26502;51.886;15.604;2023-03-22T13:05:44;1.50;;;1.00;;
40793;SDS011;26502;51.886;15.604;2023-03-22T13:10:59;2.80;;;1.70;;
40793;SDS011;26502;51.886;15.604;2023-03-22T13:16:14;2.90;;;1.20;;
40793;SDS011;26502;51.886;15.604;2023-03-22T13:21:26;2.00;;;1.40;;
40793;SDS011;26502;51.886;15.604;2023-03-22T13:26:36;2.50;;;1.10;;
40793;SDS011;26502;51.886;15.604;2023-03-22T13:31:53;3.80;;;1.30;;
40793;SDS011;26502;51.886;15.604;2023-03-22T13:37:01;1.30;;;1.10;;
40793;SDS011;26502;51.886;15.604;2023-03-22T13:42:17;2.40;;;1.80;;
40793;SDS011;26502;51.886;15.604;2023-03-22T13:47:32;1.90;;;1.30;;
40793;SDS011;26502;51.886;15.604;2023-03-22T13:52:40;1.20;;;1.10;;
40793;SDS011;26502;51.886;15.604;2023-03-22T13:57:57;1.40;;;0.90;;
40793;SDS011;26502;51.886;15.604;2023-03-22T14:03:07;1.90;;;1.00;;
40793;SDS011;26502;51.886;15.604;2023-03-22T14:08:20;1.60;;;1.30;;
40793;SDS011;26502;51.886;15.604;2023-03-22T14:13:32;4.20;;;1.00;;
40793;SDS011;26502;51.886;15.604;2023-03-22T14:18:41;23.50;;;9.20;;
40793;SDS011;26502;51.886;15.604;2023-03-22T14:23:51;2.60;;;1.40;;
40793;SDS011;26502;51.886;15.604;2023-03-22T14:29:06;14.40;;;5.40;;
40793;SDS011;26502;51.886;15.604;2023-03-22T14:34:17;8.80;;;4.60;;
40793;SDS011;26502;51.886;15.604;2023-03-22T14:39:27;4.80;;;1.60;;
40793;SDS011;26502;51.886;15.604;2023-03-22T14:44:39;10.20;;;6.40;;
40793;SDS011;26502;51.886;15.604;2023-03-22T14:49:47;5.20;;;1.90;;
40793;SDS011;26502;51.886;15.604;2023-03-22T14:54:55;8.20;;;5.30;;
40793;SDS011;26502;51.886;15.604;2023-03-22T15:00:04;7.60;;;1.50;;
40793;SDS011;26502;51.886;15.604;2023-03-22T15:05:19;1.60;;;1.30;;
40793;SDS011;26502;51.886;15.604;2023-03-22T15:10:27;2.30;;;1.20;;
40793;SDS011;26502;51.886;15.604;2023-03-22T15:15:36;4.00;;;1.80;;
40793;SDS011;26502;51.886;15.604;2023-03-22T15:20:45;1.60;;;0.90;;
40793;SDS011;26502;51.886;15.604;2023-03-22T15:25:53;2.80;;;1.60;;
40793;SDS011;26502;51.886;15.604;2023-03-22T15:36:10;3.50;;;1.30;;
40793;SDS011;26502;51.886;15.604;2023-03-22T15:41:23;2.50;;;1.50;;
40793;SDS011;26502;51.886;15.604;2023-03-22T15:46:44;2.20;;;1.30;;
40793;SDS011;26502;51.886;15.604;2023-03-22T15:51:53;5.00;;;1.50;;
40793;SDS011;26502;51.886;15.604;2023-03-22T15:57:07;7.50;;;4.20;;
40793;SDS011;26502;51.886;15.604;2023-03-22T16:02:24;3.70;;;1.90;;
40793;SDS011;26502;51.886;15.604;2023-03-22T16:07:33;5.00;;;1.90;;
40793;SDS011;26502;51.886;15.604;2023-03-22T16:12:39;6.60;;;4.50;;
40793;SDS011;26502;51.886;15.604;2023-03-22T16:17:46;7.90;;;4.60;;
40793;SDS011;26502;51.886;15.604;2023-03-22T16:22:53;12.70;;;6.40;;
40793;SDS011;26502;51.886;15.604;2023-03-22T16:28:01;13.40;;;5.90;;
40793;SDS011;26502;51.886;15.604;2023-03-22T16:33:08;14.80;;;6.30;;
40793;SDS011;26502;51.886;15.604;2023-03-22T16:38:17;24.70;;;8.90;;
40793;SDS011;26502;51.886;15.604;2023-03-22T16:43:24;11.40;;;4.90;;
40793;SDS011;26502;51.886;15.604;2023-03-22T16:48:30;8.90;;;4.60;;
40793;SDS011;26502;51.886;15.604;2023-03-22T16:53:38;9.70;;;4.10;;
40793;SDS011;26502;51.886;15.604;2023-03-22T16:58:45;8.00;;;4.10;;
40793;SDS011;26502;51.886;15.604;2023-03-22T17:03:51;12.40;;;5.30;;
40793;SDS011;26502;51.886;15.604;2023-03-22T17:08:58;9.50;;;4.90;;
40793;SDS011;26502;51.886;15.604;2023-03-22T17:14:04;9.20;;;5.10;;
40793;SDS011;26502;51.886;15.604;2023-03-22T17:19:10;11.50;;;5.00;;
40793;SDS011;26502;51.886;15.604;2023-03-22T17:24:16;9.70;;;4.70;;
40793;SDS011;26502;51.886;15.604;2023-03-22T17:29:22;9.20;;;5.10;;
40793;SDS011;26502;51.886;15.604;2023-03-22T17:34:29;9.50;;;6.50;;
40793;SDS011;26502;51.886;15.604;2023-03-22T17:39:36;10.20;;;6.10;;
40793;SDS011;26502;51.886;15.604;2023-03-22T17:44:43;8.80;;;6.00;;
40793;SDS011;26502;51.886;15.604;2023-03-22T17:49:50;7.30;;;3.00;;
40793;SDS011;26502;51.886;15.604;2023-03-22T17:54:56;6.00;;;2.80;;
40793;SDS011;26502;51.886;15.604;2023-03-22T18:00:02;3.50;;;1.50;;
40793;SDS011;26502;51.886;15.604;2023-03-22T18:05:16;1.50;;;1.40;;
40793;SDS011;26502;51.886;15.604;2023-03-22T18:10:24;2.40;;;1.40;;
40793;SDS011;26502;51.886;15.604;2023-03-22T18:15:30;3.90;;;1.60;;
40793;SDS011;26502;51.886;15.604;2023-03-22T18:20:36;10.90;;;2.00;;
40793;SDS011;26502;51.886;15.604;2023-03-22T18:25:43;5.60;;;2.10;;
40793;SDS011;26502;51.886;15.604;2023-03-22T18:30:50;7.00;;;2.80;;
40793;SDS011;26502;51.886;15.604;2023-03-22T18:35:57;5.80;;;2.70;;
40793;SDS011;26502;51.886;15.604;2023-03-22T18:41:06;5.80;;;2.70;;
40793;SDS011;26502;51.886;15.604;2023-03-22T18:46:15;13.90;;;4.60;;
40793;SDS011;26502;51.886;15.604;2023-03-22T18:51:22;7.50;;;4.20;;
40793;SDS011;26502;51.886;15.604;2023-03-22T18:56:29;11.40;;;5.60;;
40793;SDS011;26502;51.886;15.604;2023-03-22T19:01:35;23.00;;;10.60;;
40793;SDS011;26502;51.886;15.604;2023-03-22T19:06:43;18.60;;;8.50;;
40793;SDS011;26502;51.886;15.604;2023-03-22T19:11:49;26.20;;;12.30;;
40793;SDS011;26502;51.886;15.604;2023-03-22T19:16:55;26.10;;;12.80;;
40793;SDS011;26502;51.886;15.604;2023-03-22T19:22:02;24.40;;;11.90;;
40793;SDS011;26502;51.886;15.604;2023-03-22T19:27:09;24.50;;;13.10;;
40793;SDS011;26502;51.886;15.604;2023-03-22T19:32:16;42.10;;;19.80;;
40793;SDS011;26502;51.886;15.604;2023-03-22T19:37:23;41.20;;;20.20;;
40793;SDS011;26502;51.886;15.604;2023-03-22T19:42:29;46.00;;;26.40;;
40793;SDS011;26502;51.886;15.604;2023-03-22T19:47:35;47.50;;;24.40;;
40793;SDS011;26502;51.886;15.604;2023-03-22T19:52:42;33.00;;;20.10;;
40793;SDS011;26502;51.886;15.604;2023-03-22T19:57:49;31.00;;;19.00;;
40793;SDS011;26502;51.886;15.604;2023-03-22T20:02:56;26.40;;;14.90;;
40793;SDS011;26502;51.886;15.604;2023-03-22T20:08:02;25.30;;;16.50;;
40793;SDS011;26502;51.886;15.604;2023-03-22T20:13:10;31.40;;;15.60;;
40793;SDS011;26502;51.886;15.604;2023-03-22T20:18:16;27.40;;;17.10;;
40793;SDS011;26502;51.886;15.604;2023-03-22T20:23:23;27.70;;;17.20;;
40793;SDS011;26502;51.886;15.604;2023-03-22T20:28:30;27.60;;;17.10;;
40793;SDS011;26502;51.886;15.604;2023-03-22T20:33:37;33.50;;;21.20;;
40793;SDS011;26502;51.886;15.604;2023-03-22T20:38:44;30.70;;;18.20;;
40793;SDS011;26502;51.886;15.604;2023-03-22T20:43:52;36.10;;;21.40;;
40793;SDS011;26502;51.886;15.604;2023-03-22T20:48:59;31.10;;;19.80;;
40793;SDS011;26502;51.886;15.604;2023-03-22T20:54:06;38.10;;;22.20;;
40793;SDS011;26502;51.886;15.604;2023-03-22T20:59:12;43.30;;;25.50;;
40793;SDS011;26502;51.886;15.604;2023-03-22T21:04:20;46.50;;;29.80;;
40793;SDS011;26502;51.886;15.604;2023-03-22T21:09:27;42.80;;;25.90;;
40793;SDS011;26502;51.886;15.604;2023-03-22T21:14:34;40.30;;;24.10;;
40793;SDS011;26502;51.886;15.604;2023-03-22T21:19:40;43.00;;;26.00;;
40793;SDS011;26502;51.886;15.604;2023-03-22T21:24:48;41.80;;;25.00;;
40793;SDS011;26502;51.886;15.604;2023-03-22T21:29:54;49.10;;;31.50;;
40793;SDS011;26502;51.886;15.604;2023-03-22T21:35:02;56.30;;;39.80;;
40793;SDS011;26502;51.886;15.604;2023-03-22T21:40:10;57.40;;;38.30;;
40793;SDS011;26502;51.886;15.604;2023-03-22T21:45:17;64.50;;;43.40;;
40793;SDS011;26502;51.886;15.604;2023-03-22T21:50:23;61.60;;;43.40;;
40793;SDS011;26502;51.886;15.604;2023-03-22T21:55:30;64.00;;;43.00;;
40793;SDS011;26502;51.886;15.604;2023-03-22T22:00:36;67.00;;;44.60;;
40793;SDS011;26502;51.886;15.604;2023-03-22T22:05:47;67.10;;;45.20;;
40793;SDS011;26502;51.886;15.604;2023-03-22T22:10:54;74.70;;;50.60;;
40793;SDS011;26502;51.886;15.604;2023-03-22T22:16:01;80.60;;;53.60;;
40793;SDS011;26502;51.886;15.604;2023-03-22T22:21:10;72.20;;;49.30;;
40793;SDS011;26502;51.886;15.604;2023-03-22T22:26:17;64.30;;;42.50;;
40793;SDS011;26502;51.886;15.604;2023-03-22T22:31:25;70.30;;;47.30;;
40793;SDS011;26502;51.886;15.604;2023-03-22T22:36:33;73.90;;;50.70;;
40793;SDS011;26502;51.886;15.604;2023-03-22T22:41:40;71.00;;;48.30;;
40793;SDS011;26502;51.886;15.604;2023-03-22T22:46:46;67.20;;;46.20;;
40793;SDS011;26502;51.886;15.604;2023-03-22T22:51:53;56.60;;;38.50;;
40793;SDS011;26502;51.886;15.604;2023-03-22T22:56:59;58.10;;;40.00;;
40793;SDS011;26502;51.886;15.604;2023-03-22T23:02:05;63.40;;;40.90;;
40793;SDS011;26502;51.886;15.604;2023-03-22T23:07:11;50.90;;;36.10;;
40793;SDS011;26502;51.886;15.604;2023-03-22T23:12:18;56.40;;;37.70;;
40793;SDS011;26502;51.886;15.604;2023-03-22T23:17:24;47.70;;;31.80;;
40793;SDS011;26502;51.886;15.604;2023-03-22T23:22:32;41.30;;;25.90;;
40793;SDS011;26502;51.886;15.604;2023-03-22T23:27:38;43.80;;;29.10;;
40793;SDS011;26502;51.886;15.604;2023-03-22T23:32:45;38.10;;;27.50;;
40793;SDS011;26502;51.886;15.604;2023-03-22T23:37:53;38.50;;;26.00;;
40793;SDS011;26502;51.886;15.604;2023-03-22T23:43:02;38.80;;;25.10;;
40793;SDS011;26502;51.886;15.604;2023-03-22T23:48:08;32.30;;;21.60;;
40793;SDS011;26502;51.886;15.604;2023-03-22T23:53:14;36.20;;;21.90;;
40793;SDS011;26502;51.886;15.604;2023-03-22T23:58:21;33.00;;;20.40;;
